Impacts TAF Board INFO
FOR SITUATIONAL AWARENESS. NOT TO BE USED FOR FLIGHT PLANNING PURPOSES.
IDs:

KDEN - Denver Intl, CO, US

Issued at 0809 UTC 22 Feb 2018
Updated at 0851 UTC 22 Feb 2018
Potential Impact None Slight Moderate High
Time<<23/09Z 23/10Z 23/11Z 23/12Z 23/13Z 23/14Z 23/15Z 23/16Z 23/17Z 23/18Z 23/19Z 23/20Z 23/21Z
Type PRVL PRVL PRVL
VIS >6 >6 >6
CIG 10 10 10
Cover OVC OVC OVC
FltCat MVFR MVFR MVFR
WX VCFG VCFG VCFG
WDir VRB VRB VRB
WSpd 4 4 4
WGst -- -- --

Raw TAF
KDEN 220809Z 2208/2312 20005KT 4SM BR SCT050 BKN080
  FM221600 VRB05KT 4SM -SHSN OVC015
  TEMPO 2216/2219 1SM -SHSN OVC010
  FM221900 02005KT P6SM VCSH SCT015 OVC025
  FM230100 VRB04KT P6SM VCSH SCT020 OVC030
  FM230900 VRB04KT P6SM VCFG OVC010


METAR Board
Radar Display
Forecast Discussion

FOR SITUATIONAL AWARENESS. NOT TO BE USED FOR FLIGHT PLANNING PURPOSES.